BAW51P LPPT-EGLL
Flight info
| Callsign | BAW51P |
|---|---|
| Flight time | 2h 5m |
| Altitude | 40000 |
| Route | IXIDA DCT RIVRO DCT TOSDI DCT ZMR DCT NUBLO DCT RONSI DCT DELOG DCT DEGEX DCT OZNOH DCT JSY DCT REVTU/N0424F340 UP87 ROXOG |
| Aircraft | B772/H-SDE2E3FGHIJ5LORVWXY/LB1D1 |
Departure
| Time | 2026-05-06 17:56 |
|---|---|
| Airport | Lisbon Humberto Delgado Airport (LPPT) |
Arrival
| Time | 2026-05-06 20:01 |
|---|---|
| Airport | London Heathrow Airport (EGLL) |
| Time | Latitude | Longitude | Altitude | Speed | Heading |
|---|---|---|---|---|---|
| 2026-05-06 17:31 | 38.77671 | -9.13215 | 342 ft | 0 kts | 121° |
| 2026-05-06 17:40 | 38.77672 | -9.13215 | 342 ft | 0 kts | 121° |
| 2026-05-06 17:47 | 38.77684 | -9.13240 | 353 ft | 4 kts | 124° |
| 2026-05-06 17:47 | 38.77700 | -9.13268 | 351 ft | 4 kts | 128° |
| 2026-05-06 17:47 | 38.77717 | -9.13294 | 353 ft | 4 kts | 133° |
| 2026-05-06 17:48 | 38.77737 | -9.13319 | 354 ft | 4 kts | 138° |
| 2026-05-06 17:48 | 38.77758 | -9.13340 | 357 ft | 6 kts | 150° |
| 2026-05-06 17:48 | 38.77777 | -9.13351 | 359 ft | 3 kts | 168° |
| 2026-05-06 17:50 | 38.77773 | -9.13350 | 359 ft | 3 kts | 168° |
| 2026-05-06 17:50 | 38.77728 | -9.13352 | 355 ft | 8 kts | 197° |
| 2026-05-06 17:50 | 38.77677 | -9.13377 | 352 ft | 8 kts | 202° |
| 2026-05-06 17:51 | 38.77609 | -9.13413 | 359 ft | 14 kts | 202° |
| 2026-05-06 17:51 | 38.77518 | -9.13465 | 358 ft | 14 kts | 212° |
| 2026-05-06 17:51 | 38.77435 | -9.13533 | 361 ft | 14 kts | 188° |
| 2026-05-06 17:51 | 38.77341 | -9.13514 | 354 ft | 11 kts | 168° |
| 2026-05-06 17:52 | 38.77291 | -9.13543 | 357 ft | 9 kts | 251° |
| 2026-05-06 17:52 | 38.77276 | -9.13621 | 362 ft | 9 kts | 258° |
| 2026-05-06 17:52 | 38.77263 | -9.13703 | 364 ft | 12 kts | 258° |
| 2026-05-06 17:52 | 38.77243 | -9.13818 | 361 ft | 13 kts | 252° |
| 2026-05-06 17:53 | 38.77168 | -9.13879 | 362 ft | 13 kts | 203° |
| 2026-05-06 17:53 | 38.77049 | -9.13943 | 363 ft | 22 kts | 202° |
| 2026-05-06 17:53 | 38.76909 | -9.14018 | 359 ft | 22 kts | 202° |
| 2026-05-06 17:53 | 38.76770 | -9.14092 | 357 ft | 19 kts | 202° |
| 2026-05-06 17:54 | 38.76675 | -9.14143 | 350 ft | 14 kts | 202° |
| 2026-05-06 17:54 | 38.76604 | -9.14181 | 356 ft | 10 kts | 207° |
| 2026-05-06 17:54 | 38.76602 | -9.14264 | 347 ft | 11 kts | 293° |
| 2026-05-06 17:54 | 38.76632 | -9.14352 | 336 ft | 9 kts | 293° |
| 2026-05-06 17:55 | 38.76687 | -9.14365 | 353 ft | 10 kts | 21° |
| 2026-05-06 17:55 | 38.76964 | -9.14219 | 359 ft | 87 kts | 21° |
| 2026-05-06 17:55 | 38.77768 | -9.13779 | 423 ft | 148 kts | 17° |
| 2026-05-06 17:55 | 38.78737 | -9.13198 | 866 ft | 161 kts | 20° |
| 2026-05-06 17:56 | 38.79844 | -9.12568 | 1811 ft | 183 kts | 20° |
| 2026-05-06 17:56 | 38.81001 | -9.11863 | 2881 ft | 185 kts | 22° |
| 2026-05-06 17:56 | 38.81795 | -9.11338 | 3293 ft | 197 kts | 22° |
| 2026-05-06 17:56 | 38.83090 | -9.10457 | 3593 ft | 230 kts | 24° |
| 2026-05-06 17:57 | 38.84552 | -9.09430 | 4277 ft | 247 kts | 26° |
| 2026-05-06 17:57 | 38.86046 | -9.08303 | 5200 ft | 253 kts | 31° |
| 2026-05-06 17:57 | 38.87576 | -9.07108 | 6082 ft | 261 kts | 32° |
| 2026-05-06 17:57 | 38.89155 | -9.05871 | 6906 ft | 269 kts | 32° |
| 2026-05-06 17:58 | 38.90670 | -9.04439 | 7675 ft | 274 kts | 41° |
| 2026-05-06 17:58 | 38.92114 | -9.02768 | 8434 ft | 283 kts | 43° |
| 2026-05-06 17:58 | 38.93564 | -9.01026 | 9340 ft | 288 kts | 43° |
| 2026-05-06 17:58 | 38.95041 | -8.99252 | 10218 ft | 293 kts | 42° |
| 2026-05-06 17:59 | 38.96586 | -8.97412 | 10659 ft | 318 kts | 42° |
| 2026-05-06 17:59 | 38.98272 | -8.95418 | 11267 ft | 336 kts | 41° |
| 2026-05-06 17:59 | 39.00023 | -8.93358 | 12295 ft | 343 kts | 42° |
| 2026-05-06 17:59 | 39.01809 | -8.91264 | 13507 ft | 352 kts | 41° |
| 2026-05-06 18:00 | 39.03637 | -8.89122 | 14638 ft | 357 kts | 41° |
| 2026-05-06 18:00 | 39.05468 | -8.86978 | 15992 ft | 356 kts | 42° |
| 2026-05-06 18:00 | 39.07319 | -8.84810 | 17093 ft | 364 kts | 42° |
| 2026-05-06 18:00 | 39.09214 | -8.82589 | 18107 ft | 374 kts | 42° |
| 2026-05-06 18:01 | 39.11157 | -8.80309 | 19050 ft | 381 kts | 42° |
| 2026-05-06 18:01 | 39.13128 | -8.77996 | 19988 ft | 388 kts | 42° |
| 2026-05-06 18:01 | 39.15143 | -8.75629 | 20889 ft | 394 kts | 42° |
| 2026-05-06 18:01 | 39.17171 | -8.73229 | 21916 ft | 400 kts | 43° |
| 2026-05-06 18:02 | 39.19122 | -8.70621 | 22799 ft | 407 kts | 48° |
| 2026-05-06 18:02 | 39.21003 | -8.67851 | 23711 ft | 415 kts | 49° |
| 2026-05-06 18:02 | 39.22892 | -8.64989 | 24423 ft | 423 kts | 49° |
| 2026-05-06 18:02 | 39.24812 | -8.62079 | 25239 ft | 428 kts | 49° |
| 2026-05-06 18:03 | 39.26762 | -8.59146 | 26102 ft | 433 kts | 49° |
| 2026-05-06 18:03 | 39.28749 | -8.56187 | 26899 ft | 439 kts | 49° |
| 2026-05-06 18:03 | 39.30773 | -8.53192 | 27625 ft | 446 kts | 49° |
| 2026-05-06 18:03 | 39.32832 | -8.50157 | 28335 ft | 453 kts | 48° |
| 2026-05-06 18:04 | 39.34925 | -8.47075 | 29029 ft | 459 kts | 48° |
| 2026-05-06 18:04 | 39.37046 | -8.43952 | 29713 ft | 465 kts | 48° |
| 2026-05-06 18:04 | 39.39191 | -8.40790 | 30344 ft | 470 kts | 48° |
| 2026-05-06 18:04 | 39.41358 | -8.37591 | 30917 ft | 475 kts | 48° |
| 2026-05-06 18:05 | 39.43541 | -8.34364 | 31428 ft | 480 kts | 48° |
| 2026-05-06 18:05 | 39.45749 | -8.31096 | 31969 ft | 484 kts | 48° |
| 2026-05-06 18:05 | 39.47975 | -8.27797 | 32486 ft | 489 kts | 48° |
| 2026-05-06 18:05 | 39.50220 | -8.24467 | 32991 ft | 493 kts | 48° |
| 2026-05-06 18:06 | 39.52483 | -8.21106 | 33508 ft | 497 kts | 48° |
| 2026-05-06 18:06 | 39.54766 | -8.17713 | 33952 ft | 502 kts | 48° |
| 2026-05-06 18:06 | 39.57066 | -8.14290 | 34360 ft | 505 kts | 47° |
| 2026-05-06 18:06 | 39.59374 | -8.10849 | 34838 ft | 506 kts | 47° |
| 2026-05-06 18:07 | 39.61687 | -8.07399 | 35284 ft | 508 kts | 47° |
| 2026-05-06 18:07 | 39.64008 | -8.03934 | 35736 ft | 509 kts | 47° |
| 2026-05-06 18:07 | 39.66309 | -8.00534 | 36275 ft | 507 kts | 46° |
| 2026-05-06 18:07 | 39.68755 | -7.97175 | 36911 ft | 503 kts | 44° |
| 2026-05-06 18:08 | 39.71212 | -7.93968 | 37503 ft | 500 kts | 43° |
| 2026-05-06 18:08 | 39.73686 | -7.90797 | 38071 ft | 499 kts | 42° |
| 2026-05-06 18:08 | 39.76122 | -7.87678 | 38570 ft | 498 kts | 42° |
| 2026-05-06 18:08 | 39.78577 | -7.84511 | 38996 ft | 497 kts | 43° |
| 2026-05-06 18:09 | 39.80978 | -7.81386 | 39334 ft | 497 kts | 43° |
| 2026-05-06 18:09 | 39.83417 | -7.78189 | 39672 ft | 498 kts | 43° |
| 2026-05-06 18:09 | 39.85854 | -7.74977 | 39909 ft | 500 kts | 43° |
| 2026-05-06 18:09 | 39.88308 | -7.71735 | 39899 ft | 503 kts | 43° |
| 2026-05-06 18:10 | 39.93180 | -7.65279 | 39882 ft | 496 kts | 43° |
| 2026-05-06 18:10 | 39.98013 | -7.58866 | 39869 ft | 496 kts | 43° |
| 2026-05-06 18:11 | 40.02855 | -7.52434 | 39883 ft | 497 kts | 44° |
| 2026-05-06 18:11 | 40.07690 | -7.45997 | 39888 ft | 497 kts | 44° |
| 2026-05-06 18:12 | 40.12529 | -7.39542 | 39878 ft | 497 kts | 44° |
| 2026-05-06 18:12 | 40.17367 | -7.33073 | 39880 ft | 498 kts | 44° |
| 2026-05-06 18:13 | 40.22204 | -7.26589 | 39872 ft | 498 kts | 44° |
| 2026-05-06 18:13 | 40.27033 | -7.20104 | 39894 ft | 498 kts | 44° |
| 2026-05-06 18:14 | 40.31866 | -7.13600 | 39878 ft | 498 kts | 44° |
| 2026-05-06 18:14 | 40.36690 | -7.07091 | 39880 ft | 498 kts | 44° |
| 2026-05-06 18:15 | 40.41510 | -7.00575 | 39882 ft | 497 kts | 44° |
| 2026-05-06 18:15 | 40.46324 | -6.94053 | 39882 ft | 497 kts | 44° |
| 2026-05-06 18:16 | 40.51129 | -6.87529 | 39882 ft | 497 kts | 44° |
| 2026-05-06 18:16 | 40.55902 | -6.81032 | 39879 ft | 497 kts | 44° |
| 2026-05-06 18:17 | 40.60731 | -6.74447 | 39884 ft | 497 kts | 44° |
| 2026-05-06 18:17 | 40.65684 | -6.68198 | 39885 ft | 496 kts | 40° |
| 2026-05-06 18:18 | 40.70866 | -6.62186 | 39886 ft | 496 kts | 39° |
| 2026-05-06 18:18 | 40.76047 | -6.56167 | 39889 ft | 497 kts | 39° |
| 2026-05-06 18:19 | 40.81208 | -6.50099 | 39886 ft | 497 kts | 40° |
| 2026-05-06 18:19 | 40.86438 | -6.44163 | 39887 ft | 494 kts | 34° |
| 2026-05-06 18:20 | 40.92310 | -6.39530 | 39894 ft | 490 kts | 24° |
| 2026-05-06 18:20 | 40.98427 | -6.35541 | 39906 ft | 491 kts | 24° |
| 2026-05-06 18:21 | 41.04548 | -6.31530 | 39900 ft | 491 kts | 24° |
| 2026-05-06 18:21 | 41.10655 | -6.27470 | 39902 ft | 491 kts | 24° |
| 2026-05-06 18:22 | 41.16744 | -6.23390 | 39906 ft | 491 kts | 24° |
| 2026-05-06 18:22 | 41.22837 | -6.19294 | 39914 ft | 491 kts | 24° |
| 2026-05-06 18:23 | 41.28926 | -6.15195 | 39903 ft | 490 kts | 24° |
| 2026-05-06 18:23 | 41.35003 | -6.11097 | 39904 ft | 490 kts | 24° |
| 2026-05-06 18:24 | 41.41085 | -6.06988 | 39915 ft | 490 kts | 25° |
| 2026-05-06 18:24 | 41.47155 | -6.02878 | 39914 ft | 490 kts | 25° |
| 2026-05-06 18:25 | 41.53234 | -5.98753 | 39910 ft | 490 kts | 25° |
| 2026-05-06 18:25 | 41.59314 | -5.94618 | 39913 ft | 490 kts | 25° |
| 2026-05-06 18:26 | 41.65386 | -5.90480 | 39926 ft | 490 kts | 25° |
| 2026-05-06 18:26 | 41.71425 | -5.86356 | 39906 ft | 490 kts | 25° |
| 2026-05-06 18:27 | 41.77500 | -5.82198 | 39922 ft | 490 kts | 25° |
| 2026-05-06 18:27 | 41.83566 | -5.78038 | 39924 ft | 490 kts | 25° |
| 2026-05-06 18:28 | 41.89636 | -5.73866 | 39916 ft | 490 kts | 25° |
| 2026-05-06 18:28 | 41.95693 | -5.69693 | 39916 ft | 490 kts | 25° |
| 2026-05-06 18:29 | 42.01756 | -5.65508 | 39915 ft | 490 kts | 25° |
| 2026-05-06 18:29 | 42.07821 | -5.61313 | 39935 ft | 490 kts | 25° |
| 2026-05-06 18:30 | 42.13879 | -5.57113 | 39924 ft | 490 kts | 25° |
| 2026-05-06 18:30 | 42.19940 | -5.52902 | 39929 ft | 490 kts | 25° |
| 2026-05-06 18:31 | 42.26000 | -5.48682 | 39930 ft | 490 kts | 25° |
| 2026-05-06 18:31 | 42.32053 | -5.44459 | 39941 ft | 490 kts | 25° |
| 2026-05-06 18:32 | 42.38101 | -5.40229 | 39929 ft | 489 kts | 25° |
| 2026-05-06 18:32 | 42.44145 | -5.35993 | 39936 ft | 489 kts | 25° |
| 2026-05-06 18:33 | 42.50179 | -5.31754 | 39951 ft | 488 kts | 25° |
| 2026-05-06 18:33 | 42.56212 | -5.27508 | 39947 ft | 488 kts | 25° |
| 2026-05-06 18:34 | 42.62235 | -5.23259 | 39946 ft | 488 kts | 25° |
| 2026-05-06 18:34 | 42.68258 | -5.19000 | 39948 ft | 488 kts | 25° |
| 2026-05-06 18:35 | 42.74239 | -5.14762 | 39958 ft | 488 kts | 25° |
| 2026-05-06 18:35 | 42.80293 | -5.10463 | 39969 ft | 488 kts | 25° |
| 2026-05-06 18:36 | 42.86278 | -5.06203 | 39963 ft | 489 kts | 25° |
| 2026-05-06 18:36 | 42.92300 | -5.01908 | 39991 ft | 488 kts | 26° |
| 2026-05-06 18:37 | 42.97343 | -4.98303 | 39987 ft | 488 kts | 26° |
| 2026-05-06 18:37 | 43.04322 | -4.93303 | 39996 ft | 488 kts | 25° |
| 2026-05-06 18:38 | 43.10328 | -4.88991 | 39996 ft | 487 kts | 25° |
| 2026-05-06 18:38 | 43.16331 | -4.84673 | 40016 ft | 487 kts | 26° |
| 2026-05-06 18:39 | 43.22326 | -4.80348 | 40019 ft | 487 kts | 26° |
| 2026-05-06 18:40 | 43.31323 | -4.73839 | 40013 ft | 487 kts | 26° |
| 2026-05-06 18:40 | 43.37312 | -4.69496 | 40017 ft | 487 kts | 26° |
| 2026-05-06 18:41 | 43.43293 | -4.65148 | 40021 ft | 486 kts | 26° |
| 2026-05-06 18:41 | 43.49270 | -4.60792 | 40018 ft | 486 kts | 26° |
| 2026-05-06 18:42 | 43.55236 | -4.56435 | 40023 ft | 486 kts | 26° |
| 2026-05-06 18:42 | 43.61167 | -4.52094 | 40014 ft | 486 kts | 26° |
| 2026-05-06 18:43 | 43.67130 | -4.47721 | 40011 ft | 486 kts | 26° |
| 2026-05-06 18:43 | 43.73098 | -4.43333 | 40011 ft | 486 kts | 26° |
| 2026-05-06 18:44 | 43.79064 | -4.38936 | 40011 ft | 486 kts | 26° |
| 2026-05-06 18:44 | 43.85021 | -4.34537 | 40007 ft | 485 kts | 26° |
| 2026-05-06 18:45 | 43.89978 | -4.30868 | 40009 ft | 485 kts | 26° |
| 2026-05-06 18:45 | 43.95966 | -4.26426 | 40016 ft | 485 kts | 26° |
| 2026-05-06 18:46 | 44.01877 | -4.22032 | 40006 ft | 485 kts | 26° |
| 2026-05-06 18:46 | 44.07822 | -4.17602 | 40005 ft | 484 kts | 26° |
| 2026-05-06 18:47 | 44.13796 | -4.13141 | 40005 ft | 484 kts | 26° |
| 2026-05-06 18:47 | 44.19692 | -4.08726 | 40013 ft | 484 kts | 26° |
| 2026-05-06 18:48 | 44.25617 | -4.04281 | 40009 ft | 484 kts | 26° |
| 2026-05-06 18:48 | 44.31633 | -4.00114 | 40009 ft | 481 kts | 19° |
| 2026-05-06 18:49 | 44.38028 | -3.97493 | 40013 ft | 478 kts | 8° |
| 2026-05-06 18:49 | 44.44575 | -3.95989 | 40016 ft | 477 kts | 6° |
| 2026-05-06 18:50 | 44.51139 | -3.94565 | 40012 ft | 477 kts | 7° |
| 2026-05-06 18:50 | 44.57709 | -3.93097 | 40014 ft | 478 kts | 7° |
| 2026-05-06 18:51 | 44.64267 | -3.91591 | 40010 ft | 478 kts | 7° |
| 2026-05-06 18:51 | 44.70830 | -3.90069 | 40011 ft | 478 kts | 7° |
| 2026-05-06 18:52 | 44.77383 | -3.88546 | 40014 ft | 478 kts | 7° |
| 2026-05-06 18:52 | 44.83943 | -3.87020 | 40013 ft | 478 kts | 7° |
| 2026-05-06 18:53 | 44.90503 | -3.85491 | 40013 ft | 478 kts | 7° |
| 2026-05-06 18:53 | 44.97054 | -3.83961 | 40017 ft | 477 kts | 7° |
| 2026-05-06 18:54 | 45.03611 | -3.82426 | 40009 ft | 477 kts | 7° |
| 2026-05-06 18:54 | 45.10120 | -3.80899 | 40013 ft | 477 kts | 7° |
| 2026-05-06 18:55 | 45.16707 | -3.79349 | 40021 ft | 477 kts | 7° |
| 2026-05-06 18:55 | 45.23213 | -3.77815 | 40012 ft | 477 kts | 7° |
| 2026-05-06 18:56 | 45.29761 | -3.76268 | 40011 ft | 477 kts | 7° |
| 2026-05-06 18:56 | 45.36299 | -3.74719 | 40016 ft | 477 kts | 7° |
| 2026-05-06 18:57 | 45.42844 | -3.73166 | 40012 ft | 477 kts | 7° |
| 2026-05-06 18:57 | 45.49386 | -3.71609 | 40008 ft | 476 kts | 7° |
| 2026-05-06 18:58 | 45.55920 | -3.70050 | 40011 ft | 476 kts | 7° |
| 2026-05-06 18:58 | 45.62459 | -3.68487 | 40004 ft | 476 kts | 7° |
| 2026-05-06 18:59 | 45.68989 | -3.66922 | 40008 ft | 476 kts | 7° |
| 2026-05-06 18:59 | 45.75525 | -3.65352 | 40013 ft | 476 kts | 7° |
| 2026-05-06 19:00 | 45.82059 | -3.63778 | 40007 ft | 476 kts | 7° |
| 2026-05-06 19:00 | 45.88581 | -3.62204 | 40009 ft | 476 kts | 7° |
| 2026-05-06 19:01 | 45.95109 | -3.60624 | 40014 ft | 476 kts | 7° |
| 2026-05-06 19:01 | 46.01637 | -3.59041 | 40007 ft | 476 kts | 7° |
| 2026-05-06 19:02 | 46.08157 | -3.57456 | 40009 ft | 475 kts | 7° |
| 2026-05-06 19:02 | 46.14639 | -3.55876 | 40013 ft | 475 kts | 8° |
| 2026-05-06 19:03 | 46.21161 | -3.54283 | 40001 ft | 475 kts | 8° |
| 2026-05-06 19:03 | 46.27714 | -3.52678 | 40006 ft | 475 kts | 8° |
| 2026-05-06 19:04 | 46.34187 | -3.51089 | 40002 ft | 475 kts | 8° |
| 2026-05-06 19:04 | 46.40701 | -3.49486 | 40003 ft | 475 kts | 8° |
| 2026-05-06 19:05 | 46.47209 | -3.47881 | 40004 ft | 475 kts | 8° |
| 2026-05-06 19:05 | 46.53722 | -3.46271 | 40002 ft | 475 kts | 8° |
| 2026-05-06 19:06 | 46.60230 | -3.44658 | 39993 ft | 475 kts | 8° |
| 2026-05-06 19:06 | 46.66745 | -3.43039 | 39993 ft | 475 kts | 8° |
| 2026-05-06 19:07 | 46.73258 | -3.41417 | 39997 ft | 475 kts | 8° |
| 2026-05-06 19:07 | 46.79764 | -3.39792 | 39999 ft | 475 kts | 8° |
| 2026-05-06 19:08 | 46.86277 | -3.38162 | 39997 ft | 475 kts | 8° |
| 2026-05-06 19:08 | 46.92790 | -3.36528 | 40005 ft | 475 kts | 8° |
| 2026-05-06 19:09 | 46.99295 | -3.34892 | 39999 ft | 475 kts | 8° |
| 2026-05-06 19:09 | 47.05809 | -3.33249 | 39985 ft | 475 kts | 8° |
| 2026-05-06 19:10 | 47.12322 | -3.31603 | 39985 ft | 475 kts | 8° |
| 2026-05-06 19:10 | 47.18827 | -3.29954 | 39984 ft | 475 kts | 8° |
| 2026-05-06 19:11 | 47.25338 | -3.28300 | 39987 ft | 475 kts | 8° |
| 2026-05-06 19:11 | 47.31839 | -3.26644 | 39985 ft | 474 kts | 8° |
| 2026-05-06 19:12 | 47.38348 | -3.24983 | 39989 ft | 475 kts | 8° |
| 2026-05-06 19:12 | 47.44860 | -3.23316 | 39985 ft | 475 kts | 8° |
| 2026-05-06 19:13 | 47.51366 | -3.21646 | 39983 ft | 475 kts | 8° |
| 2026-05-06 19:13 | 47.57866 | -3.19974 | 39990 ft | 474 kts | 8° |
| 2026-05-06 19:14 | 47.64331 | -3.18306 | 39991 ft | 474 kts | 8° |
| 2026-05-06 19:14 | 47.70822 | -3.16550 | 39985 ft | 475 kts | 12° |
| 2026-05-06 19:15 | 47.77068 | -3.13302 | 39996 ft | 477 kts | 23° |
| 2026-05-06 19:15 | 47.82888 | -3.08501 | 39986 ft | 479 kts | 29° |
| 2026-05-06 19:16 | 47.88601 | -3.03392 | 39979 ft | 479 kts | 30° |
| 2026-05-06 19:16 | 47.94326 | -2.98302 | 39980 ft | 479 kts | 29° |
| 2026-05-06 19:17 | 48.00067 | -2.93243 | 39987 ft | 479 kts | 29° |
| 2026-05-06 19:17 | 48.05817 | -2.88183 | 39983 ft | 480 kts | 29° |
| 2026-05-06 19:18 | 48.11566 | -2.83109 | 39987 ft | 480 kts | 29° |
| 2026-05-06 19:18 | 48.17304 | -2.78029 | 39987 ft | 479 kts | 29° |
| 2026-05-06 19:19 | 48.23048 | -2.72929 | 39987 ft | 480 kts | 29° |
| 2026-05-06 19:19 | 48.28787 | -2.67819 | 39992 ft | 480 kts | 29° |
| 2026-05-06 19:20 | 48.34530 | -2.62692 | 39993 ft | 480 kts | 29° |
| 2026-05-06 19:20 | 48.40269 | -2.57556 | 39988 ft | 480 kts | 29° |
| 2026-05-06 19:21 | 48.46028 | -2.52491 | 39991 ft | 479 kts | 26° |
| 2026-05-06 19:21 | 48.52129 | -2.48479 | 39992 ft | 478 kts | 20° |
| 2026-05-06 19:22 | 48.58259 | -2.44775 | 39995 ft | 478 kts | 20° |
| 2026-05-06 19:22 | 48.64427 | -2.40999 | 39993 ft | 478 kts | 21° |
| 2026-05-06 19:23 | 48.70582 | -2.37169 | 39994 ft | 478 kts | 21° |
| 2026-05-06 19:23 | 48.76739 | -2.33312 | 39993 ft | 478 kts | 21° |
| 2026-05-06 19:24 | 48.82891 | -2.29449 | 39995 ft | 478 kts | 21° |
| 2026-05-06 19:24 | 48.89035 | -2.25583 | 39994 ft | 478 kts | 21° |
| 2026-05-06 19:25 | 48.95186 | -2.21703 | 39993 ft | 478 kts | 21° |
| 2026-05-06 19:25 | 49.01329 | -2.17818 | 39993 ft | 478 kts | 21° |
| 2026-05-06 19:26 | 49.07473 | -2.13922 | 40001 ft | 478 kts | 21° |
| 2026-05-06 19:26 | 49.13619 | -2.10012 | 39997 ft | 479 kts | 21° |
| 2026-05-06 19:27 | 49.19764 | -2.06095 | 39995 ft | 479 kts | 21° |
| 2026-05-06 19:27 | 49.25764 | -2.01664 | 40005 ft | 479 kts | 27° |
| 2026-05-06 19:28 | 49.31585 | -1.96659 | 40007 ft | 480 kts | 28° |
| 2026-05-06 19:28 | 49.37409 | -1.91645 | 40004 ft | 480 kts | 28° |
| 2026-05-06 19:29 | 49.43256 | -1.86661 | 39450 ft | 486 kts | 27° |
| 2026-05-06 19:29 | 49.46210 | -1.84145 | 38944 ft | 483 kts | 27° |
| 2026-05-06 19:29 | 49.49135 | -1.81651 | 38434 ft | 478 kts | 27° |
| 2026-05-06 19:29 | 49.52025 | -1.79180 | 37936 ft | 472 kts | 27° |
| 2026-05-06 19:30 | 49.54876 | -1.76740 | 37504 ft | 465 kts | 27° |
| 2026-05-06 19:30 | 49.57754 | -1.74585 | 37068 ft | 457 kts | 19° |
| 2026-05-06 19:30 | 49.60759 | -1.73110 | 36662 ft | 449 kts | 12° |
| 2026-05-06 19:30 | 49.63802 | -1.72182 | 36245 ft | 442 kts | 5° |
| 2026-05-06 19:31 | 49.66848 | -1.71837 | 35847 ft | 436 kts | 1° |
| 2026-05-06 19:31 | 49.69856 | -1.71626 | 35427 ft | 431 kts | 1° |
| 2026-05-06 19:31 | 49.74793 | -1.71289 | 34739 ft | 424 kts | 1° |
| 2026-05-06 19:32 | 49.78678 | -1.70993 | 34188 ft | 419 kts | 1° |
| 2026-05-06 19:32 | 49.80636 | -1.70835 | 33894 ft | 417 kts | 1° |
| 2026-05-06 19:32 | 49.83518 | -1.70596 | 33419 ft | 413 kts | 1° |
| 2026-05-06 19:32 | 49.87289 | -1.70277 | 32851 ft | 407 kts | 1° |
| 2026-05-06 19:33 | 49.89194 | -1.70115 | 32577 ft | 404 kts | 1° |
| 2026-05-06 19:33 | 49.91985 | -1.69879 | 32164 ft | 400 kts | 1° |
| 2026-05-06 19:33 | 49.94746 | -1.69645 | 31762 ft | 396 kts | 1° |
| 2026-05-06 19:33 | 49.97483 | -1.69411 | 31372 ft | 392 kts | 2° |
| 2026-05-06 19:34 | 50.00181 | -1.68909 | 30965 ft | 390 kts | 8° |
| 2026-05-06 19:34 | 50.02819 | -1.67933 | 30580 ft | 389 kts | 15° |
| 2026-05-06 19:34 | 50.05392 | -1.66679 | 30198 ft | 386 kts | 16° |
| 2026-05-06 19:34 | 50.07942 | -1.65401 | 29767 ft | 384 kts | 16° |
| 2026-05-06 19:35 | 50.10476 | -1.64133 | 29333 ft | 381 kts | 16° |
| 2026-05-06 19:35 | 50.12993 | -1.62883 | 28915 ft | 379 kts | 15° |
| 2026-05-06 19:35 | 50.15495 | -1.61650 | 28491 ft | 376 kts | 15° |
| 2026-05-06 19:35 | 50.17986 | -1.60427 | 28080 ft | 374 kts | 15° |
| 2026-05-06 19:36 | 50.20465 | -1.59212 | 27671 ft | 372 kts | 15° |
| 2026-05-06 19:36 | 50.22928 | -1.58005 | 27257 ft | 371 kts | 15° |
| 2026-05-06 19:36 | 50.25387 | -1.56798 | 26854 ft | 370 kts | 15° |
| 2026-05-06 19:36 | 50.27837 | -1.55596 | 26454 ft | 368 kts | 15° |
| 2026-05-06 19:37 | 50.30281 | -1.54404 | 26056 ft | 367 kts | 15° |
| 2026-05-06 19:37 | 50.32717 | -1.53218 | 25660 ft | 366 kts | 15° |
| 2026-05-06 19:37 | 50.35149 | -1.52033 | 25264 ft | 366 kts | 15° |
| 2026-05-06 19:37 | 50.37576 | -1.50848 | 24860 ft | 365 kts | 15° |
| 2026-05-06 19:38 | 50.40022 | -1.49723 | 29532 ft | 370 kts | 15° |
| 2026-05-06 19:38 | 50.42433 | -1.48527 | 28587 ft | 360 kts | 15° |
| 2026-05-06 19:38 | 50.44807 | -1.47333 | 27383 ft | 357 kts | 15° |
| 2026-05-06 19:38 | 50.47167 | -1.46155 | 26194 ft | 355 kts | 15° |
| 2026-05-06 19:39 | 50.49517 | -1.44994 | 25018 ft | 353 kts | 15° |
| 2026-05-06 19:39 | 50.51861 | -1.43841 | 23847 ft | 352 kts | 15° |
| 2026-05-06 19:39 | 50.54178 | -1.42652 | 22588 ft | 350 kts | 20° |
| 2026-05-06 19:39 | 50.56346 | -1.41036 | 21602 ft | 351 kts | 27° |
| 2026-05-06 19:40 | 50.58452 | -1.39158 | 21275 ft | 346 kts | 28° |
| 2026-05-06 19:40 | 50.60529 | -1.37268 | 20878 ft | 343 kts | 28° |
| 2026-05-06 19:40 | 50.62592 | -1.35415 | 20503 ft | 341 kts | 28° |
| 2026-05-06 19:40 | 50.64653 | -1.33597 | 20131 ft | 338 kts | 27° |
| 2026-05-06 19:41 | 50.66705 | -1.31809 | 19752 ft | 336 kts | 27° |
| 2026-05-06 19:41 | 50.68747 | -1.30041 | 19376 ft | 334 kts | 27° |
| 2026-05-06 19:41 | 50.70774 | -1.28291 | 19002 ft | 332 kts | 27° |
| 2026-05-06 19:41 | 50.72796 | -1.26546 | 18630 ft | 330 kts | 27° |
| 2026-05-06 19:42 | 50.74804 | -1.24811 | 18243 ft | 328 kts | 27° |
| 2026-05-06 19:42 | 50.76791 | -1.23069 | 17821 ft | 326 kts | 29° |
| 2026-05-06 19:42 | 50.78709 | -1.21170 | 17423 ft | 324 kts | 31° |
| 2026-05-06 19:42 | 50.80584 | -1.19212 | 17045 ft | 321 kts | 32° |
| 2026-05-06 19:43 | 50.82435 | -1.17263 | 16670 ft | 319 kts | 32° |
| 2026-05-06 19:43 | 50.84276 | -1.15334 | 16288 ft | 316 kts | 32° |
| 2026-05-06 19:43 | 50.86103 | -1.13427 | 15937 ft | 313 kts | 32° |
| 2026-05-06 19:43 | 50.87920 | -1.11539 | 15578 ft | 311 kts | 31° |
| 2026-05-06 19:44 | 50.89720 | -1.09671 | 15201 ft | 309 kts | 32° |
| 2026-05-06 19:44 | 50.91515 | -1.07810 | 14845 ft | 307 kts | 32° |
| 2026-05-06 19:44 | 50.93293 | -1.05966 | 14485 ft | 305 kts | 31° |
| 2026-05-06 19:44 | 50.95063 | -1.04131 | 14132 ft | 303 kts | 31° |
| 2026-05-06 19:45 | 50.96821 | -1.02305 | 13765 ft | 302 kts | 32° |
| 2026-05-06 19:45 | 50.98572 | -1.00486 | 13364 ft | 300 kts | 32° |
| 2026-05-06 19:45 | 51.00306 | -0.98669 | 12988 ft | 296 kts | 34° |
| 2026-05-06 19:45 | 51.01826 | -0.96519 | 12706 ft | 294 kts | 45° |
| 2026-05-06 19:46 | 51.03195 | -0.94074 | 12457 ft | 298 kts | 47° |
| 2026-05-06 19:46 | 51.04550 | -0.91552 | 12192 ft | 301 kts | 47° |
| 2026-05-06 19:46 | 51.05917 | -0.89020 | 11916 ft | 301 kts | 47° |
| 2026-05-06 19:46 | 51.07284 | -0.86519 | 11632 ft | 298 kts | 47° |
| 2026-05-06 19:47 | 51.08646 | -0.84051 | 11377 ft | 296 kts | 47° |
| 2026-05-06 19:47 | 51.10003 | -0.81607 | 11105 ft | 294 kts | 47° |
| 2026-05-06 19:47 | 51.11355 | -0.79183 | 10842 ft | 291 kts | 46° |
| 2026-05-06 19:47 | 51.12695 | -0.76783 | 10573 ft | 289 kts | 46° |
| 2026-05-06 19:48 | 51.14029 | -0.74395 | 10315 ft | 288 kts | 46° |
| 2026-05-06 19:48 | 51.15349 | -0.72029 | 10048 ft | 283 kts | 46° |
| 2026-05-06 19:48 | 51.16648 | -0.69701 | 9778 ft | 278 kts | 46° |
| 2026-05-06 19:48 | 51.17921 | -0.67415 | 9506 ft | 274 kts | 46° |
| 2026-05-06 19:49 | 51.19181 | -0.65152 | 9258 ft | 272 kts | 47° |
| 2026-05-06 19:49 | 51.20431 | -0.62906 | 8993 ft | 270 kts | 46° |
| 2026-05-06 19:49 | 51.21671 | -0.60675 | 8754 ft | 268 kts | 47° |
| 2026-05-06 19:49 | 51.22901 | -0.58459 | 8506 ft | 266 kts | 46° |
| 2026-05-06 19:50 | 51.24126 | -0.56250 | 8265 ft | 265 kts | 47° |
| 2026-05-06 19:50 | 51.25344 | -0.54053 | 8010 ft | 264 kts | 47° |
| 2026-05-06 19:50 | 51.26565 | -0.51851 | 7783 ft | 264 kts | 46° |
| 2026-05-06 19:50 | 51.27777 | -0.49660 | 7553 ft | 262 kts | 46° |
| 2026-05-06 19:51 | 51.28977 | -0.47502 | 7306 ft | 254 kts | 44° |
| 2026-05-06 19:51 | 51.30391 | -0.45985 | 7115 ft | 241 kts | 15° |
| 2026-05-06 19:51 | 51.32018 | -0.45875 | 7065 ft | 236 kts | 345° |
| 2026-05-06 19:51 | 51.33433 | -0.47152 | 7031 ft | 236 kts | 314° |
| 2026-05-06 19:52 | 51.34234 | -0.49393 | 6907 ft | 231 kts | 288° |
| 2026-05-06 19:52 | 51.34564 | -0.51926 | 6515 ft | 235 kts | 277° |
| 2026-05-06 19:52 | 51.34618 | -0.54541 | 6220 ft | 235 kts | 271° |
| 2026-05-06 19:52 | 51.34610 | -0.57153 | 5937 ft | 235 kts | 271° |
| 2026-05-06 19:53 | 51.34582 | -0.59722 | 5649 ft | 228 kts | 270° |
| 2026-05-06 19:53 | 51.34555 | -0.62265 | 5111 ft | 229 kts | 271° |
| 2026-05-06 19:53 | 51.34525 | -0.64824 | 4568 ft | 230 kts | 271° |
| 2026-05-06 19:53 | 51.34494 | -0.67382 | 4051 ft | 230 kts | 271° |
| 2026-05-06 19:54 | 51.34463 | -0.69940 | 3564 ft | 230 kts | 270° |
| 2026-05-06 19:54 | 51.34422 | -0.72476 | 3136 ft | 228 kts | 270° |
| 2026-05-06 19:54 | 51.34388 | -0.75075 | 3006 ft | 231 kts | 274° |
| 2026-05-06 19:54 | 51.34785 | -0.77479 | 2997 ft | 224 kts | 304° |
| 2026-05-06 19:55 | 51.35890 | -0.79092 | 2947 ft | 218 kts | 337° |
| 2026-05-06 19:55 | 51.37375 | -0.79526 | 2812 ft | 216 kts | 1° |
| 2026-05-06 19:55 | 51.38864 | -0.79380 | 2688 ft | 217 kts | 5° |
| 2026-05-06 19:55 | 51.40361 | -0.79167 | 2599 ft | 214 kts | 5° |
| 2026-05-06 19:56 | 51.41809 | -0.78956 | 2541 ft | 204 kts | 5° |
| 2026-05-06 19:56 | 51.43182 | -0.78757 | 2510 ft | 189 kts | 7° |
| 2026-05-06 19:56 | 51.44343 | -0.78048 | 2483 ft | 177 kts | 38° |
| 2026-05-06 19:56 | 51.45269 | -0.76659 | 2499 ft | 180 kts | 41° |
| 2026-05-06 19:57 | 51.46184 | -0.75319 | 2489 ft | 176 kts | 40° |
| 2026-05-06 19:57 | 51.47040 | -0.73954 | 2482 ft | 172 kts | 54° |
| 2026-05-06 19:57 | 51.47371 | -0.72087 | 2502 ft | 179 kts | 82° |
| 2026-05-06 19:57 | 51.47513 | -0.70052 | 2505 ft | 186 kts | 79° |
| 2026-05-06 19:58 | 51.47643 | -0.68030 | 2490 ft | 181 kts | 83° |
| 2026-05-06 19:58 | 51.47681 | -0.66091 | 2315 ft | 168 kts | 86° |
| 2026-05-06 19:58 | 51.47693 | -0.64241 | 2069 ft | 161 kts | 86° |
| 2026-05-06 19:58 | 51.47698 | -0.62457 | 1852 ft | 157 kts | 86° |
| 2026-05-06 19:59 | 51.47703 | -0.60795 | 1654 ft | 142 kts | 86° |
| 2026-05-06 19:59 | 51.47708 | -0.59306 | 1484 ft | 133 kts | 85° |
| 2026-05-06 19:59 | 51.47714 | -0.57850 | 1289 ft | 132 kts | 85° |
| 2026-05-06 19:59 | 51.47723 | -0.56385 | 1117 ft | 131 kts | 85° |
| 2026-05-06 20:00 | 51.47729 | -0.54922 | 932 ft | 129 kts | 84° |
| 2026-05-06 20:00 | 51.47733 | -0.53475 | 756 ft | 130 kts | 88° |
| 2026-05-06 20:00 | 51.47741 | -0.52047 | 583 ft | 129 kts | 87° |
| 2026-05-06 20:00 | 51.47741 | -0.50658 | 423 ft | 125 kts | 86° |
| 2026-05-06 20:01 | 51.47749 | -0.49238 | 249 ft | 127 kts | 86° |
| 2026-05-06 20:01 | 51.47751 | -0.47840 | 111 ft | 126 kts | 86° |
| 2026-05-06 20:01 | 51.47758 | -0.46603 | 97 ft | 92 kts | 89° |
| 2026-05-06 20:01 | 51.47761 | -0.45845 | 91 ft | 48 kts | 89° |
| 2026-05-06 20:02 | 51.47760 | -0.45535 | 91 ft | 15 kts | 104° |
| 2026-05-06 20:02 | 51.47673 | -0.45468 | 90 ft | 14 kts | 178° |
| 2026-05-06 20:02 | 51.47606 | -0.45466 | 91 ft | 10 kts | 179° |
| 2026-05-06 20:02 | 51.47549 | -0.45466 | 91 ft | 7 kts | 180° |
| 2026-05-06 20:03 | 51.47514 | -0.45512 | 94 ft | 7 kts | 245° |
| 2026-05-06 20:03 | 51.47509 | -0.45557 | 94 ft | 0 kts | 268° |
| 2026-05-06 20:04 | 51.47508 | -0.45606 | 94 ft | 9 kts | 268° |
| 2026-05-06 20:05 | 51.47514 | -0.45747 | 93 ft | 14 kts | 278° |
| 2026-05-06 20:05 | 51.47518 | -0.45907 | 91 ft | 14 kts | 269° |
| 2026-05-06 20:05 | 51.47517 | -0.46067 | 91 ft | 15 kts | 270° |
| 2026-05-06 20:05 | 51.47517 | -0.46275 | 91 ft | 21 kts | 270° |
| 2026-05-06 20:06 | 51.47516 | -0.46511 | 91 ft | 21 kts | 269° |
| 2026-05-06 20:06 | 51.47511 | -0.46702 | 92 ft | 14 kts | 255° |
| 2026-05-06 20:06 | 51.47494 | -0.46845 | 95 ft | 14 kts | 269° |
| 2026-05-06 20:06 | 51.47493 | -0.47009 | 91 ft | 19 kts | 269° |
| 2026-05-06 20:07 | 51.47492 | -0.47259 | 91 ft | 23 kts | 270° |
| 2026-05-06 20:07 | 51.47491 | -0.47515 | 91 ft | 23 kts | 270° |
| 2026-05-06 20:07 | 51.47491 | -0.47771 | 91 ft | 23 kts | 269° |
| 2026-05-06 20:07 | 51.47490 | -0.48028 | 92 ft | 23 kts | 270° |
| 2026-05-06 20:08 | 51.47488 | -0.48255 | 93 ft | 12 kts | 270° |
| 2026-05-06 20:08 | 51.47468 | -0.48356 | 94 ft | 8 kts | 208° |
| 2026-05-06 20:08 | 51.47411 | -0.48360 | 91 ft | 8 kts | 177° |
| 2026-05-06 20:08 | 51.47353 | -0.48359 | 92 ft | 8 kts | 180° |
| 2026-05-06 20:09 | 51.47313 | -0.48335 | 92 ft | 7 kts | 115° |
| 2026-05-06 20:09 | 51.47314 | -0.48272 | 92 ft | 5 kts | 88° |
| 2026-05-06 20:09 | 51.47314 | -0.48235 | 91 ft | 1 kts | 89° |
| 2026-05-06 20:09 | 51.47314 | -0.48231 | 91 ft | 0 kts | 89° |